sensor_id;sensor_type;location;lat;lon;timestamp;P1;durP1;ratioP1;P2;durP2;ratioP2
70071;SDS011;57434;42.794;23.302;2022-12-07T00:42:51;19.38;;;7.72;;
70071;SDS011;57434;42.794;23.302;2022-12-07T00:46:03;20.48;;;7.88;;
70071;SDS011;57434;42.794;23.302;2022-12-07T00:48:54;19.33;;;7.05;;
70071;SDS011;57434;42.794;23.302;2022-12-07T00:51:35;24.93;;;7.90;;
70071;SDS011;57434;42.794;23.302;2022-12-07T00:54:17;16.65;;;7.68;;
70071;SDS011;57434;42.794;23.302;2022-12-07T00:56:58;16.95;;;7.22;;
70071;SDS011;57434;42.794;23.302;2022-12-07T00:59:26;17.08;;;6.13;;
70071;SDS011;57434;42.794;23.302;2022-12-07T01:02:05;19.77;;;7.60;;
70071;SDS011;57434;42.794;23.302;2022-12-07T01:04:36;21.33;;;7.50;;
70071;SDS011;57434;42.794;23.302;2022-12-07T01:07:20;16.20;;;6.15;;
70071;SDS011;57434;42.794;23.302;2022-12-07T01:10:10;19.15;;;6.55;;
70071;SDS011;57434;42.794;23.302;2022-12-07T01:12:55;17.92;;;6.15;;
70071;SDS011;57434;42.794;23.302;2022-12-07T01:15:38;16.17;;;6.90;;
70071;SDS011;57434;42.794;23.302;2022-12-07T01:18:35;13.17;;;5.57;;
70071;SDS011;57434;42.794;23.302;2022-12-07T01:21:36;18.15;;;7.25;;
70071;SDS011;57434;42.794;23.302;2022-12-07T01:24:58;18.27;;;5.85;;
70071;SDS011;57434;42.794;23.302;2022-12-07T01:27:45;16.10;;;6.18;;
70071;SDS011;57434;42.794;23.302;2022-12-07T01:30:30;14.25;;;6.80;;
70071;SDS011;57434;42.794;23.302;2022-12-07T01:33:34;17.43;;;6.30;;
70071;SDS011;57434;42.794;23.302;2022-12-07T01:47:22;13.32;;;5.93;;
70071;SDS011;57434;42.794;23.302;2022-12-07T01:50:38;17.77;;;5.97;;
70071;SDS011;57434;42.794;23.302;2022-12-07T01:53:25;18.73;;;6.20;;
70071;SDS011;57434;42.794;23.302;2022-12-07T01:56:12;21.00;;;7.80;;
70071;SDS011;57434;42.794;23.302;2022-12-07T01:58:49;16.77;;;7.13;;
70071;SDS011;57434;42.794;23.302;2022-12-07T02:01:32;21.30;;;7.53;;
70071;SDS011;57434;42.794;23.302;2022-12-07T02:04:07;18.17;;;8.03;;
70071;SDS011;57434;42.794;23.302;2022-12-07T02:06:58;25.77;;;10.30;;
70071;SDS011;57434;42.794;23.302;2022-12-07T02:09:36;23.90;;;8.77;;
70071;SDS011;57434;42.794;23.302;2022-12-07T02:12:07;25.90;;;9.60;;
70071;SDS011;57434;42.794;23.302;2022-12-07T02:14:50;28.13;;;11.35;;
70071;SDS011;57434;42.794;23.302;2022-12-07T02:17:39;24.47;;;10.87;;
70071;SDS011;57434;42.794;23.302;2022-12-07T02:20:32;23.52;;;9.88;;
70071;SDS011;57434;42.794;23.302;2022-12-07T02:26:17;20.17;;;8.65;;
70071;SDS011;57434;42.794;23.302;2022-12-07T02:34:56;18.75;;;7.15;;
70071;SDS011;57434;42.794;23.302;2022-12-07T02:37:53;16.23;;;7.03;;
70071;SDS011;57434;42.794;23.302;2022-12-07T02:40:53;15.45;;;6.03;;
70071;SDS011;57434;42.794;23.302;2022-12-07T02:43:46;16.30;;;6.63;;
70071;SDS011;57434;42.794;23.302;2022-12-07T02:46:52;15.97;;;6.80;;
70071;SDS011;57434;42.794;23.302;2022-12-07T02:49:45;13.10;;;5.68;;
70071;SDS011;57434;42.794;23.302;2022-12-07T02:52:13;13.13;;;5.25;;
70071;SDS011;57434;42.794;23.302;2022-12-07T02:54:43;10.63;;;4.60;;
70071;SDS011;57434;42.794;23.302;2022-12-07T02:57:41;12.93;;;5.05;;
70071;SDS011;57434;42.794;23.302;2022-12-07T03:00:30;15.13;;;5.00;;
70071;SDS011;57434;42.794;23.302;2022-12-07T03:03:36;13.85;;;4.57;;
70071;SDS011;57434;42.794;23.302;2022-12-07T03:06:43;11.15;;;3.92;;
70071;SDS011;57434;42.794;23.302;2022-12-07T03:09:45;16.95;;;4.85;;
70071;SDS011;57434;42.794;23.302;2022-12-07T03:15:53;11.23;;;4.83;;
70071;SDS011;57434;42.794;23.302;2022-12-07T03:19:05;15.88;;;5.07;;
70071;SDS011;57434;42.794;23.302;2022-12-07T03:24:50;12.25;;;4.90;;
70071;SDS011;57434;42.794;23.302;2022-12-07T03:27:44;11.02;;;4.18;;
70071;SDS011;57434;42.794;23.302;2022-12-07T03:30:22;14.00;;;5.23;;
70071;SDS011;57434;42.794;23.302;2022-12-07T03:36:40;12.55;;;4.65;;
70071;SDS011;57434;42.794;23.302;2022-12-07T03:39:57;11.10;;;5.00;;
70071;SDS011;57434;42.794;23.302;2022-12-07T03:42:36;11.15;;;4.82;;
70071;SDS011;57434;42.794;23.302;2022-12-07T03:45:21;17.90;;;6.97;;
70071;SDS011;57434;42.794;23.302;2022-12-07T03:54:37;12.85;;;5.65;;
70071;SDS011;57434;42.794;23.302;2022-12-07T03:57:35;13.38;;;5.15;;
70071;SDS011;57434;42.794;23.302;2022-12-07T04:00:35;13.80;;;5.40;;
70071;SDS011;57434;42.794;23.302;2022-12-07T04:03:30;18.27;;;5.22;;
70071;SDS011;57434;42.794;23.302;2022-12-07T04:06:14;11.77;;;4.38;;
70071;SDS011;57434;42.794;23.302;2022-12-07T04:09:09;16.33;;;5.28;;
70071;SDS011;57434;42.794;23.302;2022-12-07T04:11:52;19.58;;;5.15;;
70071;SDS011;57434;42.794;23.302;2022-12-07T04:14:41;15.23;;;5.40;;
70071;SDS011;57434;42.794;23.302;2022-12-07T04:17:31;16.38;;;5.75;;
70071;SDS011;57434;42.794;23.302;2022-12-07T04:20:08;14.65;;;5.28;;
70071;SDS011;57434;42.794;23.302;2022-12-07T04:22:36;16.85;;;6.70;;
70071;SDS011;57434;42.794;23.302;2022-12-07T04:25:11;12.85;;;5.57;;
70071;SDS011;57434;42.794;23.302;2022-12-07T04:27:49;11.20;;;4.83;;
70071;SDS011;57434;42.794;23.302;2022-12-07T04:30:32;16.35;;;6.75;;
70071;SDS011;57434;42.794;23.302;2022-12-07T04:33:27;13.65;;;5.45;;
70071;SDS011;57434;42.794;23.302;2022-12-07T04:36:44;13.55;;;6.28;;
70071;SDS011;57434;42.794;23.302;2022-12-07T04:39:32;12.25;;;4.88;;
70071;SDS011;57434;42.794;23.302;2022-12-07T04:42:24;14.23;;;5.37;;
70071;SDS011;57434;42.794;23.302;2022-12-07T04:45:38;15.02;;;5.32;;
70071;SDS011;57434;42.794;23.302;2022-12-07T04:48:32;15.38;;;4.93;;
70071;SDS011;57434;42.794;23.302;2022-12-07T04:51:04;16.08;;;6.22;;
70071;SDS011;57434;42.794;23.302;2022-12-07T04:54:00;15.38;;;5.43;;
70071;SDS011;57434;42.794;23.302;2022-12-07T04:56:38;12.73;;;4.77;;
70071;SDS011;57434;42.794;23.302;2022-12-07T04:59:18;11.00;;;4.47;;
70071;SDS011;57434;42.794;23.302;2022-12-07T05:02:11;14.95;;;4.93;;
70071;SDS011;57434;42.794;23.302;2022-12-07T05:05:00;12.20;;;4.75;;
70071;SDS011;57434;42.794;23.302;2022-12-07T05:07:43;11.02;;;4.50;;
70071;SDS011;57434;42.794;23.302;2022-12-07T05:10:58;9.83;;;3.53;;
70071;SDS011;57434;42.794;23.302;2022-12-07T05:13:47;9.70;;;4.47;;
70071;SDS011;57434;42.794;23.302;2022-12-07T05:16:46;13.27;;;4.25;;
70071;SDS011;57434;42.794;23.302;2022-12-07T05:20:09;13.48;;;5.43;;
70071;SDS011;57434;42.794;23.302;2022-12-07T05:23:12;13.35;;;5.05;;
70071;SDS011;57434;42.794;23.302;2022-12-07T05:25:57;14.63;;;4.70;;
70071;SDS011;57434;42.794;23.302;2022-12-07T05:29:02;9.10;;;4.43;;
70071;SDS011;57434;42.794;23.302;2022-12-07T05:32:02;12.93;;;5.43;;
70071;SDS011;57434;42.794;23.302;2022-12-07T05:34:35;9.13;;;4.05;;
70071;SDS011;57434;42.794;23.302;2022-12-07T05:37:19;11.10;;;3.22;;
70071;SDS011;57434;42.794;23.302;2022-12-07T05:40:19;12.73;;;4.60;;
70071;SDS011;57434;42.794;23.302;2022-12-07T05:43:07;16.15;;;4.82;;
70071;SDS011;57434;42.794;23.302;2022-12-07T06:02:03;25.08;;;12.95;;
70071;SDS011;57434;42.794;23.302;2022-12-07T07:25:06;86.03;;;31.17;;
70071;SDS011;57434;42.794;23.302;2022-12-07T07:28:30;54.63;;;20.88;;
70071;SDS011;57434;42.794;23.302;2022-12-07T07:31:34;42.30;;;17.53;;
70071;SDS011;57434;42.794;23.302;2022-12-07T07:51:19;30.90;;;16.25;;
70071;SDS011;57434;42.794;23.302;2022-12-07T08:53:35;26.52;;;10.93;;
70071;SDS011;57434;42.794;23.302;2022-12-07T09:08:08;26.50;;;11.05;;
70071;SDS011;57434;42.794;23.302;2022-12-07T09:10:50;22.98;;;10.05;;
70071;SDS011;57434;42.794;23.302;2022-12-07T09:13:38;24.47;;;8.80;;
70071;SDS011;57434;42.794;23.302;2022-12-07T09:16:29;21.25;;;9.82;;
70071;SDS011;57434;42.794;23.302;2022-12-07T09:28:02;23.47;;;8.10;;
70071;SDS011;57434;42.794;23.302;2022-12-07T09:30:39;23.20;;;7.80;;
70071;SDS011;57434;42.794;23.302;2022-12-07T09:34:02;28.17;;;11.50;;
70071;SDS011;57434;42.794;23.302;2022-12-07T09:37:01;22.80;;;9.50;;
70071;SDS011;57434;42.794;23.302;2022-12-07T09:39:44;25.85;;;11.20;;
70071;SDS011;57434;42.794;23.302;2022-12-07T09:42:41;28.50;;;11.03;;
70071;SDS011;57434;42.794;23.302;2022-12-07T09:45:47;26.75;;;10.05;;
70071;SDS011;57434;42.794;23.302;2022-12-07T10:05:56;32.47;;;12.35;;
70071;SDS011;57434;42.794;23.302;2022-12-07T10:08:56;28.15;;;7.95;;
70071;SDS011;57434;42.794;23.302;2022-12-07T10:14:56;26.65;;;9.90;;
70071;SDS011;57434;42.794;23.302;2022-12-07T10:17:55;23.83;;;9.85;;
70071;SDS011;57434;42.794;23.302;2022-12-07T10:24:05;27.92;;;10.93;;
70071;SDS011;57434;42.794;23.302;2022-12-07T11:14:01;22.38;;;8.50;;
70071;SDS011;57434;42.794;23.302;2022-12-07T11:48:20;16.55;;;8.07;;
70071;SDS011;57434;42.794;23.302;2022-12-07T11:51:11;20.27;;;8.07;;
70071;SDS011;57434;42.794;23.302;2022-12-07T11:54:01;22.30;;;9.43;;
70071;SDS011;57434;42.794;23.302;2022-12-07T11:56:51;24.00;;;11.87;;
70071;SDS011;57434;42.794;23.302;2022-12-07T11:59:39;20.30;;;8.73;;
70071;SDS011;57434;42.794;23.302;2022-12-07T12:02:51;19.80;;;7.20;;
70071;SDS011;57434;42.794;23.302;2022-12-07T12:05:43;18.05;;;6.93;;
70071;SDS011;57434;42.794;23.302;2022-12-07T12:18:28;19.60;;;7.90;;
70071;SDS011;57434;42.794;23.302;2022-12-07T12:21:08;16.80;;;7.75;;
70071;SDS011;57434;42.794;23.302;2022-12-07T12:23:48;20.85;;;7.82;;
70071;SDS011;57434;42.794;23.302;2022-12-07T12:26:40;18.80;;;7.83;;
70071;SDS011;57434;42.794;23.302;2022-12-07T12:29:31;18.27;;;8.77;;
70071;SDS011;57434;42.794;23.302;2022-12-07T12:40:37;20.67;;;7.67;;
70071;SDS011;57434;42.794;23.302;2022-12-07T12:46:36;18.20;;;7.55;;
70071;SDS011;57434;42.794;23.302;2022-12-07T12:51:50;22.38;;;8.88;;
70071;SDS011;57434;42.794;23.302;2022-12-07T13:02:33;28.27;;;11.38;;
70071;SDS011;57434;42.794;23.302;2022-12-07T13:05:28;18.08;;;8.18;;
70071;SDS011;57434;42.794;23.302;2022-12-07T13:08:30;20.30;;;8.80;;
70071;SDS011;57434;42.794;23.302;2022-12-07T13:11:15;24.20;;;8.02;;
70071;SDS011;57434;42.794;23.302;2022-12-07T13:20:59;17.80;;;8.15;;
70071;SDS011;57434;42.794;23.302;2022-12-07T13:23:37;27.80;;;11.60;;
70071;SDS011;57434;42.794;23.302;2022-12-07T13:31:55;19.88;;;8.38;;
70071;SDS011;57434;42.794;23.302;2022-12-07T13:35:26;19.70;;;9.07;;
70071;SDS011;57434;42.794;23.302;2022-12-07T13:37:55;23.40;;;8.83;;
70071;SDS011;57434;42.794;23.302;2022-12-07T13:40:43;24.80;;;9.77;;
70071;SDS011;57434;42.794;23.302;2022-12-07T13:43:51;25.52;;;9.75;;
70071;SDS011;57434;42.794;23.302;2022-12-07T13:46:41;27.65;;;10.55;;
70071;SDS011;57434;42.794;23.302;2022-12-07T13:49:24;24.85;;;9.25;;
70071;SDS011;57434;42.794;23.302;2022-12-07T13:55:25;22.52;;;9.25;;
70071;SDS011;57434;42.794;23.302;2022-12-07T13:57:54;29.65;;;10.68;;
70071;SDS011;57434;42.794;23.302;2022-12-07T14:00:36;25.85;;;10.00;;
70071;SDS011;57434;42.794;23.302;2022-12-07T14:06:56;20.87;;;9.00;;
70071;SDS011;57434;42.794;23.302;2022-12-07T14:09:24;20.80;;;8.65;;
70071;SDS011;57434;42.794;23.302;2022-12-07T14:12:08;22.73;;;9.48;;
70071;SDS011;57434;42.794;23.302;2022-12-07T14:14:55;24.52;;;9.63;;
70071;SDS011;57434;42.794;23.302;2022-12-07T14:23:24;22.65;;;9.70;;
70071;SDS011;57434;42.794;23.302;2022-12-07T14:26:18;26.10;;;10.98;;
70071;SDS011;57434;42.794;23.302;2022-12-07T14:32:44;28.90;;;10.02;;
70071;SDS011;57434;42.794;23.302;2022-12-07T14:42:12;23.23;;;9.00;;
70071;SDS011;57434;42.794;23.302;2022-12-07T14:48:53;30.15;;;13.90;;
70071;SDS011;57434;42.794;23.302;2022-12-07T14:51:43;24.27;;;9.17;;
70071;SDS011;57434;42.794;23.302;2022-12-07T15:13:29;31.35;;;11.82;;
70071;SDS011;57434;42.794;23.302;2022-12-07T15:19:01;18.07;;;8.13;;
70071;SDS011;57434;42.794;23.302;2022-12-07T15:21:50;58.45;;;25.65;;
70071;SDS011;57434;42.794;23.302;2022-12-07T16:16:53;33.70;;;13.33;;
